Time;durP1;ratioP1;P1;durP2;ratioP2;P2;SDS_P1;SDS_P2;PMS_P1;PMS_P2;Temp;Humidity;BMP_temperature;BMP_pressure;BME280_temperature;BME280_humidity;BME280_pressure;Samples;Min_cycle;Max_cycle;Signal;HPM_P1;HPM_P2
2022/06/06 00:01:43;;;;;;;21.23;11.27;;;;;;;;;;5082433;28;20396;-65
2022/06/06 00:04:10;;;;;;;23.55;12.30;;;;;;;;;;5100891;28;20441;-65
2022/06/06 00:06:37;;;;;;;20.85;12.35;;;;;;;;;;5097951;28;20050;-64
2022/06/06 00:09:03;;;;;;;24.65;11.60;;;;;;;;;;5096304;28;20042;-65
2022/06/06 00:11:34;;;;;;;21.20;11.65;;;;;;;;;;5094140;28;20162;-64
2022/06/06 00:14:00;;;;;;;28.98;12.18;;;;;;;;;;5096954;28;20047;-65
2022/06/06 00:16:26;;;;;;;27.75;13.18;;;;;;;;;;5099525;28;20105;-65
2022/06/06 00:18:53;;;;;;;24.48;11.68;;;;;;;;;;5096210;28;20039;-65
2022/06/06 00:21:19;;;;;;;27.52;12.68;;;;;;;;;;5097690;28;20040;-65
2022/06/06 00:23:45;;;;;;;24.77;11.27;;;;;;;;;;5081279;28;20039;-65
2022/06/06 00:26:12;;;;;;;25.23;12.68;;;;;;;;;;5081456;28;20047;-64
2022/06/06 00:28:39;;;;;;;19.65;11.32;;;;;;;;;;5100437;28;22123;-65
2022/06/06 00:36:36;;;;;;;21.40;11.15;;;;;;;;;;5099256;28;20050;-65
2022/06/06 00:39:04;;;;;;;21.60;10.80;;;;;;;;;;5081591;28;20140;-64
2022/06/06 00:41:30;;;;;;;24.35;11.38;;;;;;;;;;5098482;28;20035;-64
2022/06/06 00:44:04;;;;;;;20.70;10.70;;;;;;;;;;5075252;28;20052;-65
2022/06/06 00:46:30;;;;;;;18.50;10.80;;;;;;;;;;5098720;28;20126;-65
2022/06/06 00:48:56;;;;;;;19.80;10.73;;;;;;;;;;5082057;28;20048;-64
2022/06/06 00:51:22;;;;;;;20.52;10.77;;;;;;;;;;5102274;28;20040;-64
2022/06/06 00:53:51;;;;;;;18.70;10.93;;;;;;;;;;5097072;28;20066;-64
2022/06/06 00:56:24;;;;;;;17.65;10.32;;;;;;;;;;5083864;28;20865;-65
2022/06/06 00:58:52;;;;;;;23.25;10.07;;;;;;;;;;5097106;28;20774;-64
2022/06/06 01:01:18;;;;;;;20.27;8.95;;;;;;;;;;5092030;28;20608;-64
2022/06/06 01:03:45;;;;;;;22.95;8.75;;;;;;;;;;5097118;28;20644;-65
2022/06/06 01:06:13;;;;;;;25.42;10.52;;;;;;;;;;5097643;28;20051;-64
2022/06/06 01:08:39;;;;;;;27.38;9.63;;;;;;;;;;5095408;28;20040;-64
2022/06/06 01:11:06;;;;;;;27.25;9.95;;;;;;;;;;5094695;28;20185;-64
2022/06/06 01:13:33;;;;;;;21.92;9.43;;;;;;;;;;5096850;28;20093;-64
2022/06/06 01:16:11;;;;;;;23.60;9.80;;;;;;;;;;5103256;28;20435;-64
2022/06/06 01:18:45;;;;;;;21.77;9.90;;;;;;;;;;5082590;28;20089;-64
2022/06/06 01:21:23;;;;;;;30.85;11.13;;;;;;;;;;5103555;28;20544;-64
2022/06/06 01:23:57;;;;;;;26.70;11.32;;;;;;;;;;5085745;28;20070;-64
2022/06/06 01:26:32;;;;;;;28.15;10.82;;;;;;;;;;5102681;28;20040;-65
2022/06/06 01:29:04;;;;;;;24.73;9.85;;;;;;;;;;5103457;28;20210;-65
2022/06/06 01:31:44;;;;;;;23.02;9.50;;;;;;;;;;5085383;28;20384;-65
2022/06/06 01:34:12;;;;;;;23.85;10.15;;;;;;;;;;5102929;28;20055;-64
2022/06/06 01:36:39;;;;;;;25.95;9.88;;;;;;;;;;5099817;28;20071;-65
2022/06/06 01:39:08;;;;;;;28.88;9.85;;;;;;;;;;5099304;28;20043;-64
2022/06/06 01:41:58;;;;;;;27.20;10.38;;;;;;;;;;5097018;28;20483;-64
2022/06/06 01:44:36;;;;;;;24.35;10.70;;;;;;;;;;5093154;28;20552;-64
2022/06/06 01:47:04;;;;;;;22.73;9.43;;;;;;;;;;5095663;28;20048;-64
2022/06/06 01:49:32;;;;;;;22.67;9.68;;;;;;;;;;5096281;28;20127;-64
2022/06/06 01:51:59;;;;;;;27.50;10.00;;;;;;;;;;5096973;28;20043;-64
2022/06/06 01:54:26;;;;;;;31.50;11.48;;;;;;;;;;5061019;28;20056;-64
2022/06/06 01:56:53;;;;;;;35.08;10.52;;;;;;;;;;5079403;28;20051;-64
2022/06/06 01:59:19;;;;;;;29.38;11.32;;;;;;;;;;5093496;28;20048;-64
2022/06/06 02:01:46;;;;;;;26.20;11.80;;;;;;;;;;5093414;28;20059;-64
2022/06/06 02:04:12;;;;;;;32.25;11.18;;;;;;;;;;5097691;28;20112;-64
2022/06/06 02:06:39;;;;;;;22.77;10.57;;;;;;;;;;5078603;28;20047;-64
2022/06/06 02:09:05;;;;;;;25.83;10.85;;;;;;;;;;5097355;28;20490;-65
2022/06/06 02:11:31;;;;;;;16.75;9.13;;;;;;;;;;5092088;28;20094;-64
2022/06/06 02:13:57;;;;;;;31.48;11.75;;;;;;;;;;5096497;28;20050;-64
2022/06/06 02:16:24;;;;;;;21.50;10.25;;;;;;;;;;5097642;28;20069;-64
2022/06/06 02:18:50;;;;;;;32.10;12.43;;;;;;;;;;5095983;28;20050;-64
2022/06/06 02:21:16;;;;;;;24.42;11.63;;;;;;;;;;5097203;28;20040;-64
2022/06/06 02:23:45;;;;;;;29.10;12.40;;;;;;;;;;5096099;28;20043;-64
2022/06/06 02:26:12;;;;;;;23.33;11.00;;;;;;;;;;5077489;28;20048;-64
2022/06/06 02:28:38;;;;;;;20.55;10.38;;;;;;;;;;5079771;28;20372;-64
2022/06/06 02:31:05;;;;;;;19.10;10.00;;;;;;;;;;5096268;28;20398;-64
2022/06/06 02:33:32;;;;;;;21.70;9.57;;;;;;;;;;5093398;28;20472;-64
2022/06/06 02:36:00;;;;;;;20.08;10.88;;;;;;;;;;5098462;28;20088;-64
2022/06/06 02:38:27;;;;;;;18.98;10.00;;;;;;;;;;5091340;28;20096;-64
2022/06/06 02:40:54;;;;;;;17.05;8.65;;;;;;;;;;5092704;28;20515;-64
2022/06/06 02:43:21;;;;;;;17.88;8.50;;;;;;;;;;5078537;28;20044;-64
2022/06/06 02:45:50;;;;;;;21.58;9.82;;;;;;;;;;5097744;28;20055;-64
2022/06/06 02:48:16;;;;;;;18.25;8.50;;;;;;;;;;5093955;28;20043;-64
2022/06/06 02:50:43;;;;;;;23.25;9.07;;;;;;;;;;5097362;28;20040;-64
2022/06/06 02:53:09;;;;;;;15.80;8.73;;;;;;;;;;5093161;28;20036;-64
2022/06/06 02:55:36;;;;;;;17.80;9.00;;;;;;;;;;5094402;28;20035;-64
2022/06/06 02:58:02;;;;;;;21.15;8.80;;;;;;;;;;5098074;28;20048;-64
2022/06/06 03:00:32;;;;;;;14.75;8.63;;;;;;;;;;5096060;28;20123;-65
2022/06/06 03:02:58;;;;;;;22.35;9.77;;;;;;;;;;5097392;28;20078;-64
2022/06/06 03:05:54;;;;;;;16.25;8.93;;;;;;;;;;5075478;28;20066;-63
2022/06/06 03:08:27;;;;;;;19.35;9.27;;;;;;;;;;5094056;28;20050;-64
2022/06/06 03:10:58;;;;;;;18.33;9.45;;;;;;;;;;5094519;28;20526;-64
2022/06/06 03:13:28;;;;;;;18.25;9.18;;;;;;;;;;5096789;28;20121;-64
2022/06/06 03:21:56;;;;;;;19.02;9.90;;;;;;;;;;5101648;28;20114;-65
2022/06/06 03:24:29;;;;;;;23.52;10.60;;;;;;;;;;5100447;28;20047;-64
2022/06/06 03:27:07;;;;;;;17.88;10.23;;;;;;;;;;5100699;28;20043;-65
2022/06/06 03:29:52;;;;;;;19.85;9.35;;;;;;;;;;5101165;28;20376;-65
2022/06/06 03:32:19;;;;;;;14.10;8.85;;;;;;;;;;5082417;28;20154;-65
2022/06/06 03:35:08;;;;;;;16.05;8.45;;;;;;;;;;5100661;28;20052;-64
2022/06/06 03:37:43;;;;;;;18.13;9.30;;;;;;;;;;5100316;28;20845;-64
2022/06/06 03:40:26;;;;;;;18.63;9.00;;;;;;;;;;5097304;28;20546;-64
2022/06/06 03:43:21;;;;;;;17.55;8.68;;;;;;;;;;5091794;28;20048;-65
2022/06/06 03:45:57;;;;;;;15.80;7.63;;;;;;;;;;5098543;28;20407;-65
2022/06/06 03:48:37;;;;;;;15.52;8.43;;;;;;;;;;5095214;28;20407;-64
2022/06/06 03:51:07;;;;;;;12.77;7.15;;;;;;;;;;5095285;28;20055;-64
2022/06/06 03:53:50;;;;;;;11.68;7.20;;;;;;;;;;5095616;28;20068;-65
2022/06/06 03:56:24;;;;;;;20.52;7.68;;;;;;;;;;5095194;28;20037;-64
2022/06/06 03:58:51;;;;;;;16.08;7.65;;;;;;;;;;5073456;28;20051;-64
2022/06/06 04:01:20;;;;;;;18.05;9.05;;;;;;;;;;5096791;28;20036;-64
2022/06/06 04:03:49;;;;;;;15.70;8.00;;;;;;;;;;5093833;28;20032;-65
2022/06/06 04:06:16;;;;;;;13.13;7.95;;;;;;;;;;5096005;28;20130;-64
2022/06/06 04:08:42;;;;;;;22.33;9.02;;;;;;;;;;5099548;28;20078;-64
2022/06/06 04:11:18;;;;;;;14.93;8.18;;;;;;;;;;5095860;28;20566;-64
2022/06/06 04:13:45;;;;;;;18.25;9.27;;;;;;;;;;5094835;28;20113;-64
2022/06/06 04:16:18;;;;;;;16.85;9.18;;;;;;;;;;5098054;28;20043;-65
2022/06/06 04:18:57;;;;;;;19.58;10.07;;;;;;;;;;5101438;28;20122;-64
2022/06/06 04:21:37;;;;;;;13.55;9.15;;;;;;;;;;5099823;28;20067;-64
2022/06/06 04:24:07;;;;;;;16.40;9.15;;;;;;;;;;5077386;28;20169;-64
2022/06/06 04:26:39;;;;;;;16.55;9.65;;;;;;;;;;5096321;28;20495;-64
2022/06/06 04:29:14;;;;;;;16.83;9.77;;;;;;;;;;5098579;28;20036;-64
2022/06/06 04:31:46;;;;;;;14.93;10.48;;;;;;;;;;5078714;28;20109;-64
2022/06/06 04:34:17;;;;;;;14.00;10.27;;;;;;;;;;5081632;28;20047;-65
2022/06/06 04:36:48;;;;;;;14.57;9.68;;;;;;;;;;5099369;28;20096;-64
2022/06/06 04:39:30;;;;;;;17.20;10.70;;;;;;;;;;5076660;28;20483;-64
2022/06/06 04:42:02;;;;;;;14.27;9.88;;;;;;;;;;5093303;28;21186;-64
2022/06/06 04:44:29;;;;;;;15.32;10.32;;;;;;;;;;5093804;28;20113;-64
2022/06/06 04:47:00;;;;;;;13.70;10.80;;;;;;;;;;5098120;28;20043;-64
2022/06/06 04:49:28;;;;;;;18.77;10.82;;;;;;;;;;5101484;28;20051;-64
2022/06/06 04:51:54;;;;;;;16.73;10.95;;;;;;;;;;5096669;28;20444;-64
2022/06/06 04:54:23;;;;;;;16.30;11.57;;;;;;;;;;5080942;28;20044;-64
2022/06/06 04:56:50;;;;;;;18.92;11.98;;;;;;;;;;5096435;28;20056;-64
2022/06/06 04:59:16;;;;;;;18.98;12.77;;;;;;;;;;5100200;28;20036;-64
2022/06/06 05:01:43;;;;;;;19.95;13.65;;;;;;;;;;5095284;28;20047;-64
2022/06/06 05:04:09;;;;;;;11.18;6.00;;;;;;;;;;5098111;28;20039;-65
2022/06/06 05:06:36;;;;;;;5.75;3.78;;;;;;;;;;5098424;28;21466;-64
2022/06/06 05:09:12;;;;;;;11.38;3.80;;;;;;;;;;5090922;28;20043;-64
2022/06/06 05:11:48;;;;;;;6.10;3.70;;;;;;;;;;5099300;28;20128;-65
2022/06/06 05:14:19;;;;;;;6.68;3.92;;;;;;;;;;5096467;28;20147;-64
2022/06/06 05:17:02;;;;;;;10.95;4.47;;;;;;;;;;5102507;28;20036;-64
2022/06/06 05:19:35;;;;;;;11.63;5.47;;;;;;;;;;5105391;28;20048;-64
2022/06/06 05:22:14;;;;;;;10.93;5.53;;;;;;;;;;5107536;28;20537;-64
2022/06/06 05:24:47;;;;;;;9.95;6.50;;;;;;;;;;5097049;28;20076;-64
2022/06/06 05:27:13;;;;;;;10.88;5.85;;;;;;;;;;5102992;28;20074;-64
2022/06/06 05:29:48;;;;;;;10.57;5.45;;;;;;;;;;5102418;28;20039;-64
2022/06/06 05:32:19;;;;;;;8.40;4.18;;;;;;;;;;5085597;28;20059;-64
2022/06/06 05:34:49;;;;;;;10.02;5.43;;;;;;;;;;5102454;28;20127;-65
2022/06/06 05:37:23;;;;;;;9.10;5.72;;;;;;;;;;5100715;28;20063;-65
2022/06/06 05:40:00;;;;;;;11.70;5.45;;;;;;;;;;5097657;28;20058;-64
2022/06/06 05:42:40;;;;;;;15.52;7.82;;;;;;;;;;5097176;28;20100;-64
2022/06/06 05:45:11;;;;;;;17.98;7.25;;;;;;;;;;5094236;28;20091;-64
2022/06/06 05:47:44;;;;;;;12.32;8.15;;;;;;;;;;5099645;28;20039;-63
2022/06/06 05:50:11;;;;;;;12.38;7.68;;;;;;;;;;5097396;28;20047;-63
2022/06/06 05:52:44;;;;;;;18.73;8.13;;;;;;;;;;5103578;28;20178;-63
2022/06/06 05:55:22;;;;;;;13.38;7.43;;;;;;;;;;5098506;28;20178;-65
2022/06/06 05:57:56;;;;;;;13.38;7.35;;;;;;;;;;5099897;28;20503;-64
2022/06/06 06:00:41;;;;;;;12.65;6.82;;;;;;;;;;5101595;28;20044;-65
2022/06/06 06:03:24;;;;;;;10.55;6.35;;;;;;;;;;5101030;28;20513;-65
2022/06/06 06:05:56;;;;;;;20.88;8.35;;;;;;;;;;5102741;28;20371;-65
2022/06/06 06:08:35;;;;;;;18.02;8.95;;;;;;;;;;5098815;28;20394;-65
2022/06/06 06:11:02;;;;;;;16.48;7.53;;;;;;;;;;5100371;28;20475;-65
2022/06/06 06:13:29;;;;;;;12.38;6.10;;;;;;;;;;5094913;28;20044;-64
2022/06/06 06:15:57;;;;;;;16.20;6.18;;;;;;;;;;5094176;28;20039;-64
2022/06/06 06:18:29;;;;;;;36.88;6.10;;;;;;;;;;5093195;28;20630;-64
2022/06/06 06:21:00;;;;;;;11.23;5.23;;;;;;;;;;5100564;28;20146;-65
2022/06/06 06:23:29;;;;;;;10.05;5.85;;;;;;;;;;5100909;28;20664;-65
2022/06/06 06:25:55;;;;;;;11.57;5.57;;;;;;;;;;5101288;28;20043;-65
2022/06/06 06:28:21;;;;;;;12.50;6.32;;;;;;;;;;5100082;28;20123;-65
2022/06/06 06:30:47;;;;;;;16.08;7.25;;;;;;;;;;5101894;28;20085;-64
2022/06/06 06:33:13;;;;;;;14.35;7.28;;;;;;;;;;5079318;28;20044;-65
2022/06/06 06:35:54;;;;;;;15.63;7.95;;;;;;;;;;5104276;28;20039;-65
2022/06/06 06:38:28;;;;;;;13.52;6.88;;;;;;;;;;5098030;28;20040;-64
2022/06/06 06:40:55;;;;;;;16.70;8.25;;;;;;;;;;5101779;28;20455;-65
2022/06/06 06:43:21;;;;;;;11.05;6.10;;;;;;;;;;5097504;28;20048;-65
2022/06/06 06:45:57;;;;;;;7.90;4.80;;;;;;;;;;5084427;28;20056;-65
2022/06/06 06:48:25;;;;;;;9.27;4.68;;;;;;;;;;5081228;28;20388;-65
2022/06/06 06:50:56;;;;;;;7.28;3.40;;;;;;;;;;5080472;28;20605;-65
2022/06/06 06:53:24;;;;;;;8.88;3.47;;;;;;;;;;5082360;28;20190;-65
2022/06/06 06:56:01;;;;;;;7.72;3.40;;;;;;;;;;5082374;28;20444;-65
2022/06/06 06:58:35;;;;;;;7.57;3.72;;;;;;;;;;5080595;28;20411;-65
2022/06/06 07:01:03;;;;;;;6.18;2.70;;;;;;;;;;5081559;28;20113;-64
2022/06/06 07:09:12;;;;;;;6.55;2.83;;;;;;;;;;5081377;28;20056;-65
2022/06/06 07:11:45;;;;;;;7.85;2.92;;;;;;;;;;5082199;28;20068;-63
2022/06/06 07:14:26;;;;;;;6.63;2.88;;;;;;;;;;5078439;28;20394;-64
2022/06/06 07:16:57;;;;;;;5.63;2.47;;;;;;;;;;5062368;28;20059;-64
2022/06/06 07:19:29;;;;;;;6.10;2.88;;;;;;;;;;5081203;28;20127;-64
2022/06/06 07:21:57;;;;;;;6.20;2.60;;;;;;;;;;5079368;28;20314;-64
2022/06/06 07:24:23;;;;;;;7.68;2.55;;;;;;;;;;5081473;28;20044;-64
2022/06/06 07:26:51;;;;;;;8.25;3.13;;;;;;;;;;5085589;28;20040;-65
2022/06/06 07:29:19;;;;;;;7.40;2.83;;;;;;;;;;5081764;28;20044;-65
2022/06/06 07:32:02;;;;;;;5.70;2.88;;;;;;;;;;5086582;28;20051;-65
2022/06/06 07:34:47;;;;;;;7.40;2.80;;;;;;;;;;5055295;28;20124;-65
2022/06/06 07:37:15;;;;;;;5.30;2.83;;;;;;;;;;5087155;28;20113;-65
2022/06/06 07:39:41;;;;;;;6.90;2.70;;;;;;;;;;5086217;28;20431;-65
2022/06/06 07:42:13;;;;;;;8.15;3.20;;;;;;;;;;5085489;28;20038;-65
2022/06/06 07:44:49;;;;;;;9.10;3.47;;;;;;;;;;5085250;28;20083;-65
2022/06/06 07:47:25;;;;;;;7.78;3.50;;;;;;;;;;5085378;28;20078;-65
2022/06/06 07:49:55;;;;;;;10.18;4.35;;;;;;;;;;5084935;28;21672;-65
2022/06/06 07:52:29;;;;;;;10.10;3.97;;;;;;;;;;5084824;28;20036;-65
2022/06/06 07:55:02;;;;;;;9.07;4.07;;;;;;;;;;5090317;28;20036;-65
2022/06/06 07:57:29;;;;;;;10.63;3.92;;;;;;;;;;5085892;28;20040;-65
2022/06/06 08:00:04;;;;;;;8.15;3.72;;;;;;;;;;5091044;28;20079;-65
2022/06/06 08:02:37;;;;;;;9.20;3.45;;;;;;;;;;5086642;28;20060;-65
2022/06/06 08:05:14;;;;;;;11.07;3.40;;;;;;;;;;5071572;28;20086;-65
2022/06/06 08:07:44;;;;;;;9.00;3.53;;;;;;;;;;5072959;28;20044;-65
2022/06/06 08:10:16;;;;;;;11.15;3.28;;;;;;;;;;5072062;28;20040;-65
2022/06/06 08:12:43;;;;;;;6.70;3.03;;;;;;;;;;5090276;28;20104;-65
2022/06/06 08:15:15;;;;;;;4.60;2.78;;;;;;;;;;5090136;28;20088;-65
2022/06/06 08:17:41;;;;;;;6.70;3.15;;;;;;;;;;5088506;28;20040;-65
2022/06/06 08:20:12;;;;;;;9.85;3.28;;;;;;;;;;5070742;28;20043;-65
2022/06/06 08:22:42;;;;;;;6.57;3.50;;;;;;;;;;5089751;28;20542;-65
2022/06/06 08:25:11;;;;;;;9.45;3.00;;;;;;;;;;5088865;28;20143;-65
2022/06/06 08:27:38;;;;;;;11.23;3.85;;;;;;;;;;5069854;28;20404;-65
2022/06/06 08:30:04;;;;;;;10.48;3.40;;;;;;;;;;5090129;28;20474;-65
2022/06/06 08:32:31;;;;;;;6.63;3.10;;;;;;;;;;5088206;28;20040;-65
2022/06/06 08:34:57;;;;;;;9.45;3.25;;;;;;;;;;5085796;28;20105;-65
2022/06/06 08:37:32;;;;;;;10.15;3.65;;;;;;;;;;5089587;28;20040;-65
2022/06/06 08:39:59;;;;;;;11.35;3.50;;;;;;;;;;5087908;28;20040;-65
2022/06/06 08:42:38;;;;;;;9.52;3.10;;;;;;;;;;5088589;28;20051;-65
2022/06/06 08:45:08;;;;;;;9.88;3.40;;;;;;;;;;5104770;28;20044;-65
2022/06/06 08:47:49;;;;;;;7.35;3.17;;;;;;;;;;5108557;28;20491;-65
2022/06/06 08:53:02;;;;;;;7.40;3.42;;;;;;;;;;5108594;28;20393;-65
2022/06/06 08:55:47;;;;;;;6.45;3.13;;;;;;;;;;5109805;28;20071;-65
2022/06/06 08:58:25;;;;;;;9.07;3.55;;;;;;;;;;5109435;28;20050;-65
2022/06/06 09:00:59;;;;;;;9.57;3.40;;;;;;;;;;5106793;28;20047;-65
2022/06/06 09:03:25;;;;;;;8.50;3.88;;;;;;;;;;5108539;28;20043;-65
2022/06/06 09:06:10;;;;;;;12.68;4.97;;;;;;;;;;5108919;28;20430;-65
2022/06/06 09:08:55;;;;;;;15.43;5.60;;;;;;;;;;5106804;28;20388;-65
2022/06/06 09:11:40;;;;;;;12.63;4.93;;;;;;;;;;5091517;28;20051;-65
2022/06/06 09:14:16;;;;;;;10.88;5.57;;;;;;;;;;5106055;28;20107;-65
2022/06/06 09:16:58;;;;;;;9.10;5.47;;;;;;;;;;5109729;28;20135;-65
2022/06/06 09:19:28;;;;;;;9.65;6.20;;;;;;;;;;5107107;28;20116;-65
2022/06/06 09:22:01;;;;;;;12.50;7.35;;;;;;;;;;5108081;28;20122;-65
2022/06/06 09:24:45;;;;;;;12.13;7.68;;;;;;;;;;5105137;28;20116;-65
2022/06/06 09:27:20;;;;;;;13.98;8.00;;;;;;;;;;5088988;28;20047;-65
2022/06/06 09:29:51;;;;;;;14.00;7.50;;;;;;;;;;5108697;28;20040;-65
2022/06/06 09:32:29;;;;;;;12.27;6.32;;;;;;;;;;5109127;28;20044;-65
2022/06/06 09:35:11;;;;;;;15.15;7.22;;;;;;;;;;5104933;28;20104;-65
2022/06/06 09:37:59;;;;;;;13.02;6.80;;;;;;;;;;5108195;28;20716;-65
2022/06/06 09:40:40;;;;;;;11.82;6.93;;;;;;;;;;5106177;28;20047;-65
2022/06/06 09:43:09;;;;;;;14.93;5.88;;;;;;;;;;5069710;28;20463;-65
2022/06/06 09:45:49;;;;;;;9.85;5.43;;;;;;;;;;5107418;28;20054;-65
2022/06/06 09:48:29;;;;;;;14.52;5.65;;;;;;;;;;5105565;28;20046;-65
2022/06/06 09:51:17;;;;;;;12.95;4.35;;;;;;;;;;5107190;28;20050;-65
2022/06/06 09:53:43;;;;;;;8.30;3.67;;;;;;;;;;5086029;28;20109;-65
2022/06/06 09:59:23;;;;;;;6.43;3.65;;;;;;;;;;5107474;28;20466;-65
2022/06/06 10:02:10;;;;;;;6.15;3.00;;;;;;;;;;5108218;28;20123;-65
2022/06/06 10:04:54;;;;;;;10.45;3.90;;;;;;;;;;5108154;28;20425;-65
2022/06/06 10:07:28;;;;;;;9.43;3.22;;;;;;;;;;5104950;28;20048;-65
2022/06/06 10:09:54;;;;;;;7.95;2.95;;;;;;;;;;5105145;28;20124;-65
2022/06/06 10:12:29;;;;;;;10.30;3.30;;;;;;;;;;5107844;28;20044;-66
2022/06/06 10:15:05;;;;;;;10.75;3.47;;;;;;;;;;5107603;28;20114;-65
2022/06/06 10:17:32;;;;;;;9.43;2.97;;;;;;;;;;5105023;28;20050;-65
2022/06/06 10:19:59;;;;;;;6.32;2.88;;;;;;;;;;5106790;28;20036;-64
2022/06/06 10:22:26;;;;;;;8.18;2.95;;;;;;;;;;5090946;28;20047;-65
2022/06/06 10:24:53;;;;;;;8.50;2.35;;;;;;;;;;5107706;28;20406;-64
2022/06/06 10:27:34;;;;;;;8.45;2.38;;;;;;;;;;5108456;28;20122;-64
2022/06/06 10:30:15;;;;;;;7.38;2.42;;;;;;;;;;5108536;28;20031;-65
2022/06/06 10:32:53;;;;;;;9.30;2.92;;;;;;;;;;5108154;28;20398;-65
2022/06/06 10:35:25;;;;;;;8.77;2.30;;;;;;;;;;5086333;28;20067;-65
2022/06/06 10:37:58;;;;;;;13.93;2.30;;;;;;;;;;5106981;28;20035;-64
2022/06/06 10:40:25;;;;;;;9.65;2.50;;;;;;;;;;5107733;28;20487;-65
2022/06/06 10:42:58;;;;;;;7.68;2.08;;;;;;;;;;5107921;28;20510;-65
2022/06/06 10:45:25;;;;;;;11.30;1.95;;;;;;;;;;5105896;28;20078;-65
2022/06/06 10:48:07;;;;;;;7.50;2.03;;;;;;;;;;5106955;28;20126;-65
2022/06/06 10:51:36;;;;;;;6.82;1.70;;;;;;;;;;5090041;28;20083;-65
2022/06/06 10:53:47;;;;;;;6.90;1.80;;;;;;;;;;5107088;28;20064;-64
2022/06/06 10:56:14;;;;;;;8.30;1.80;;;;;;;;;;5089930;28;20040;-65
2022/06/06 10:58:59;;;;;;;7.43;2.30;;;;;;;;;;5106998;28;20035;-64
2022/06/06 11:01:44;;;;;;;8.30;2.13;;;;;;;;;;5106023;28;20440;-65
2022/06/06 11:04:28;;;;;;;9.23;2.47;;;;;;;;;;5106466;28;20079;-65
2022/06/06 11:07:18;;;;;;;9.32;1.80;;;;;;;;;;5103332;28;20368;-65
2022/06/06 11:09:52;;;;;;;5.45;1.77;;;;;;;;;;5087658;28;20047;-64
2022/06/06 11:12:40;;;;;;;6.60;1.63;;;;;;;;;;5104653;28;20122;-65
2022/06/06 11:15:06;;;;;;;10.60;2.60;;;;;;;;;;5089213;28;20048;-65
2022/06/06 11:17:45;;;;;;;8.65;2.20;;;;;;;;;;5104968;28;20050;-65
2022/06/06 11:20:15;;;;;;;12.70;2.67;;;;;;;;;;5105628;28;20622;-65
2022/06/06 11:22:42;;;;;;;6.18;1.90;;;;;;;;;;5105968;28;20497;-64
2022/06/06 11:25:10;;;;;;;10.43;2.40;;;;;;;;;;5106658;28;20429;-65
2022/06/06 11:27:36;;;;;;;10.15;2.20;;;;;;;;;;5108674;28;20518;-64
2022/06/06 11:30:04;;;;;;;7.63;2.90;;;;;;;;;;5092786;28;20073;-65
2022/06/06 11:32:31;;;;;;;7.53;2.25;;;;;;;;;;5090114;28;20044;-65
2022/06/06 11:34:58;;;;;;;9.77;2.70;;;;;;;;;;5111292;28;20083;-65
2022/06/06 11:37:49;;;;;;;9.48;2.80;;;;;;;;;;5112035;28;20043;-65
2022/06/06 11:40:22;;;;;;;9.05;2.72;;;;;;;;;;5108910;28;20039;-64
2022/06/06 11:43:01;;;;;;;8.13;2.53;;;;;;;;;;5087890;28;20479;-64
2022/06/06 11:45:36;;;;;;;13.45;3.85;;;;;;;;;;5107373;28;20040;-65
2022/06/06 11:48:03;;;;;;;11.50;3.70;;;;;;;;;;5108709;28;20040;-65
2022/06/06 11:50:42;;;;;;;8.93;3.67;;;;;;;;;;5106973;28;20491;-65
2022/06/06 11:53:27;;;;;;;9.68;3.30;;;;;;;;;;5109528;28;20380;-65
2022/06/06 11:55:59;;;;;;;10.35;4.68;;;;;;;;;;5107909;28;20044;-65
2022/06/06 11:58:25;;;;;;;11.40;4.45;;;;;;;;;;5109716;28;20036;-65
2022/06/06 12:01:17;;;;;;;11.68;4.00;;;;;;;;;;5090521;28;20032;-65
2022/06/06 12:03:50;;;;;;;8.15;4.22;;;;;;;;;;5109970;28;20046;-65
2022/06/06 12:06:28;;;;;;;13.00;4.28;;;;;;;;;;5110123;28;20046;-65
2022/06/06 12:09:14;;;;;;;11.57;3.90;;;;;;;;;;5087564;28;20058;-65
2022/06/06 12:11:53;;;;;;;11.40;4.78;;;;;;;;;;5109050;28;20055;-65
2022/06/06 12:14:32;;;;;;;11.63;4.28;;;;;;;;;;5109180;28;20039;-65
2022/06/06 12:17:10;;;;;;;11.00;4.38;;;;;;;;;;5109264;28;20078;-65
2022/06/06 12:19:58;;;;;;;10.15;4.72;;;;;;;;;;5109012;28;20043;-65
2022/06/06 12:22:47;;;;;;;13.50;5.18;;;;;;;;;;5108540;28;20487;-65
2022/06/06 12:25:13;;;;;;;14.18;6.28;;;;;;;;;;5092222;28;20051;-65
2022/06/06 12:27:59;;;;;;;19.60;6.63;;;;;;;;;;5107741;28;20043;-65
2022/06/06 12:30:44;;;;;;;9.35;3.75;;;;;;;;;;5105102;28;20051;-65
2022/06/06 12:33:12;;;;;;;7.30;2.75;;;;;;;;;;5106082;28;20036;-65
2022/06/06 12:35:44;;;;;;;5.25;2.50;;;;;;;;;;5091327;28;20040;-65
2022/06/06 12:38:19;;;;;;;7.75;2.88;;;;;;;;;;5089926;28;20059;-65
2022/06/06 12:40:52;;;;;;;8.30;2.72;;;;;;;;;;5106503;28;20490;-65
2022/06/06 12:43:39;;;;;;;4.13;2.15;;;;;;;;;;5106929;28;20072;-65
2022/06/06 12:46:11;;;;;;;7.05;2.78;;;;;;;;;;5089503;28;20143;-65
2022/06/06 12:49:00;;;;;;;9.63;3.45;;;;;;;;;;5089973;28;20055;-65
2022/06/06 12:51:33;;;;;;;6.55;3.33;;;;;;;;;;5091167;28;20086;-65
2022/06/06 12:54:06;;;;;;;6.45;3.08;;;;;;;;;;5111106;28;20067;-65
2022/06/06 12:56:52;;;;;;;9.73;3.60;;;;;;;;;;5109691;28;20096;-65
2022/06/06 12:59:18;;;;;;;7.15;3.55;;;;;;;;;;5107739;28;20058;-65
2022/06/06 13:01:57;;;;;;;6.55;3.67;;;;;;;;;;5091096;28;20043;-65
2022/06/06 13:04:29;;;;;;;7.90;4.35;;;;;;;;;;5091974;28;20116;-65
2022/06/06 13:07:02;;;;;;;10.02;4.85;;;;;;;;;;5108337;28;20055;-65
2022/06/06 13:09:56;;;;;;;8.55;5.05;;;;;;;;;;5106156;28;20046;-65
2022/06/06 13:12:41;;;;;;;12.52;4.95;;;;;;;;;;5107581;28;20047;-65
2022/06/06 13:15:22;;;;;;;15.93;6.50;;;;;;;;;;5109284;28;20051;-65
2022/06/06 13:17:59;;;;;;;7.68;4.13;;;;;;;;;;5088480;28;20035;-65
2022/06/06 13:20:31;;;;;;;12.48;4.82;;;;;;;;;;5107364;28;20134;-65
2022/06/06 13:23:22;;;;;;;12.60;5.15;;;;;;;;;;5109066;28;20570;-65
2022/06/06 13:26:00;;;;;;;8.65;3.45;;;;;;;;;;5108769;28;20536;-65
2022/06/06 13:28:31;;;;;;;8.75;3.67;;;;;;;;;;5091010;28;20063;-65
2022/06/06 13:31:18;;;;;;;5.35;1.88;;;;;;;;;;5090324;28;20044;-65
2022/06/06 13:33:50;;;;;;;5.85;1.90;;;;;;;;;;5098821;28;20052;-65
2022/06/06 13:36:29;;;;;;;7.82;1.67;;;;;;;;;;5102661;28;20064;-65
2022/06/06 13:39:03;;;;;;;3.88;1.30;;;;;;;;;;5107436;28;20164;-64
2022/06/06 13:41:38;;;;;;;4.85;1.30;;;;;;;;;;5106532;28;20478;-64
2022/06/06 13:44:29;;;;;;;4.75;1.75;;;;;;;;;;5089807;28;20511;-64
2022/06/06 13:47:03;;;;;;;5.63;1.95;;;;;;;;;;5105139;28;20054;-64
2022/06/06 13:49:37;;;;;;;3.13;1.30;;;;;;;;;;5107158;28;20092;-64
2022/06/06 13:52:19;;;;;;;4.05;1.33;;;;;;;;;;5104362;28;20047;-64
2022/06/06 13:54:47;;;;;;;3.90;1.20;;;;;;;;;;5101361;28;20052;-64
2022/06/06 13:57:26;;;;;;;4.20;1.27;;;;;;;;;;5100406;28;20035;-64
2022/06/06 13:59:59;;;;;;;3.63;1.08;;;;;;;;;;5104835;28;20105;-64
2022/06/06 14:02:32;;;;;;;6.88;1.30;;;;;;;;;;5101816;28;20104;-64
2022/06/06 14:05:10;;;;;;;2.65;0.95;;;;;;;;;;5099018;28;20035;-63
2022/06/06 14:07:37;;;;;;;4.82;1.13;;;;;;;;;;5104178;28;20082;-64
2022/06/06 14:10:09;;;;;;;4.25;1.35;;;;;;;;;;5101795;28;20043;-64
2022/06/06 14:12:55;;;;;;;4.97;1.73;;;;;;;;;;5101520;28;20083;-64
2022/06/06 14:15:23;;;;;;;4.95;1.45;;;;;;;;;;5102826;28;20528;-64
2022/06/06 14:17:59;;;;;;;3.55;0.95;;;;;;;;;;5103944;28;20130;-64
2022/06/06 14:20:42;;;;;;;4.32;1.52;;;;;;;;;;5103708;28;20048;-64
2022/06/06 14:23:31;;;;;;;5.00;1.58;;;;;;;;;;5098964;28;20107;-69
2022/06/06 14:25:58;;;;;;;3.47;1.80;;;;;;;;;;5103489;28;20391;-63
2022/06/06 14:28:26;;;;;;;4.65;1.63;;;;;;;;;;5104075;28;20090;-64
2022/06/06 14:30:52;;;;;;;4.72;1.90;;;;;;;;;;5103726;28;20050;-64
2022/06/06 14:33:25;;;;;;;3.45;1.60;;;;;;;;;;5104353;28;20099;-64
2022/06/06 14:35:51;;;;;;;4.20;1.48;;;;;;;;;;5101555;28;20400;-64
2022/06/06 14:38:20;;;;;;;5.82;1.60;;;;;;;;;;5099843;28;20513;-64
2022/06/06 14:40:50;;;;;;;4.75;1.27;;;;;;;;;;5101178;28;20073;-64
2022/06/06 14:43:16;;;;;;;2.45;1.15;;;;;;;;;;5102486;28;20052;-64
2022/06/06 14:45:44;;;;;;;3.25;1.20;;;;;;;;;;5097600;28;20048;-63
2022/06/06 14:48:12;;;;;;;2.65;1.00;;;;;;;;;;5104571;28;20475;-64
2022/06/06 14:50:51;;;;;;;4.78;1.45;;;;;;;;;;5102930;28;20051;-64
2022/06/06 14:53:24;;;;;;;4.75;1.50;;;;;;;;;;5104523;28;20044;-64
2022/06/06 14:55:53;;;;;;;4.50;1.27;;;;;;;;;;5102597;28;20071;-64
2022/06/06 14:58:21;;;;;;;7.32;1.75;;;;;;;;;;5101741;28;20166;-64
2022/06/06 15:00:50;;;;;;;2.88;1.40;;;;;;;;;;5101581;28;20419;-64
2022/06/06 15:03:16;;;;;;;3.53;1.70;;;;;;;;;;5100238;28;20051;-63
2022/06/06 15:05:43;;;;;;;3.70;1.60;;;;;;;;;;5102038;28;20051;-64
2022/06/06 15:08:27;;;;;;;2.70;1.48;;;;;;;;;;5107789;28;20074;-64
2022/06/06 15:11:00;;;;;;;6.15;2.03;;;;;;;;;;5098626;28;20410;-64
2022/06/06 15:13:26;;;;;;;3.80;1.77;;;;;;;;;;5103791;28;20437;-64
2022/06/06 15:15:53;;;;;;;6.68;2.00;;;;;;;;;;5104845;28;20729;-64
2022/06/06 15:18:22;;;;;;;4.57;1.80;;;;;;;;;;5103109;28;20079;-63
2022/06/06 15:20:52;;;;;;;4.75;2.10;;;;;;;;;;5104237;28;20189;-63
2022/06/06 15:23:21;;;;;;;4.28;2.03;;;;;;;;;;5100467;28;20071;-64
2022/06/06 15:25:53;;;;;;;5.38;2.05;;;;;;;;;;5101992;28;20466;-63
2022/06/06 15:28:26;;;;;;;7.80;2.30;;;;;;;;;;5100191;28;20044;-64
2022/06/06 15:31:01;;;;;;;6.55;2.50;;;;;;;;;;5104268;28;20039;-63